sensor_id;sensor_type;location;lat;lon;timestamp;noise_LAeq;noise_LA_min;noise_LA_max;noise_LA01;noise_LA95
37162;Laerm;68342;52.598;13.450;2023-07-31T00:00:22;43.93;31.99;53.50;;
37162;Laerm;68342;52.598;13.450;2023-07-31T00:02:48;44.58;31.57;56.49;;
37162;Laerm;68342;52.598;13.450;2023-07-31T00:05:13;35.33;30.43;51.06;;
37162;Laerm;68342;52.598;13.450;2023-07-31T00:07:38;35.01;29.82;50.97;;
37162;Laerm;68342;52.598;13.450;2023-07-31T00:10:03;36.21;31.05;48.64;;
37162;Laerm;68342;52.598;13.450;2023-07-31T00:12:29;40.55;33.31;51.51;;
37162;Laerm;68342;52.598;13.450;2023-07-31T00:14:54;36.50;31.79;50.06;;
37162;Laerm;68342;52.598;13.450;2023-07-31T00:17:19;35.80;30.16;50.49;;
37162;Laerm;68342;52.598;13.450;2023-07-31T00:19:45;36.60;31.50;47.99;;
37162;Laerm;68342;52.598;13.450;2023-07-31T00:22:11;36.65;31.26;48.41;;
37162;Laerm;68342;52.598;13.450;2023-07-31T00:24:36;37.05;30.92;54.05;;
37162;Laerm;68342;52.598;13.450;2023-07-31T00:27:02;35.70;30.67;48.61;;
37162;Laerm;68342;52.598;13.450;2023-07-31T00:29:27;37.05;31.45;52.05;;
37162;Laerm;68342;52.598;13.450;2023-07-31T00:31:52;37.29;31.10;51.17;;
37162;Laerm;68342;52.598;13.450;2023-07-31T00:34:17;39.58;31.07;53.41;;
37162;Laerm;68342;52.598;13.450;2023-07-31T00:36:43;38.12;31.88;51.07;;
37162;Laerm;68342;52.598;13.450;2023-07-31T00:39:08;39.31;30.76;49.62;;
37162;Laerm;68342;52.598;13.450;2023-07-31T00:41:33;37.66;30.85;49.88;;
37162;Laerm;68342;52.598;13.450;2023-07-31T00:43:58;37.04;31.39;49.89;;
37162;Laerm;68342;52.598;13.450;2023-07-31T00:46:24;37.44;31.04;47.87;;
37162;Laerm;68342;52.598;13.450;2023-07-31T00:48:49;36.86;30.42;51.43;;
37162;Laerm;68342;52.598;13.450;2023-07-31T00:51:14;38.97;32.12;51.71;;
37162;Laerm;68342;52.598;13.450;2023-07-31T00:53:40;35.12;30.11;50.59;;
37162;Laerm;68342;52.598;13.450;2023-07-31T00:56:06;36.69;30.50;55.18;;
37162;Laerm;68342;52.598;13.450;2023-07-31T00:58:31;38.60;31.07;51.26;;
37162;Laerm;68342;52.598;13.450;2023-07-31T01:00:57;35.69;30.37;52.60;;
37162;Laerm;68342;52.598;13.450;2023-07-31T01:03:22;39.10;32.07;52.17;;
37162;Laerm;68342;52.598;13.450;2023-07-31T01:08:22;36.86;31.94;49.58;;
37162;Laerm;68342;52.598;13.450;2023-07-31T01:10:50;38.25;30.32;49.36;;
37162;Laerm;68342;52.598;13.450;2023-07-31T01:13:18;37.47;31.06;50.01;;
37162;Laerm;68342;52.598;13.450;2023-07-31T01:15:44;39.30;31.80;57.01;;
37162;Laerm;68342;52.598;13.450;2023-07-31T01:18:09;36.33;31.05;54.22;;
37162;Laerm;68342;52.598;13.450;2023-07-31T01:20:34;38.64;32.59;50.57;;
37162;Laerm;68342;52.598;13.450;2023-07-31T01:27:59;38.73;32.84;51.32;;
37162;Laerm;68342;52.598;13.450;2023-07-31T01:30:25;40.90;32.03;65.13;;
37162;Laerm;68342;52.598;13.450;2023-07-31T01:32:53;47.48;33.59;58.64;;
37162;Laerm;68342;52.598;13.450;2023-07-31T01:35:19;39.64;33.00;50.14;;
37162;Laerm;68342;52.598;13.450;2023-07-31T01:37:45;37.23;32.12;51.13;;
37162;Laerm;68342;52.598;13.450;2023-07-31T01:40:10;38.73;32.15;51.03;;
37162;Laerm;68342;52.598;13.450;2023-07-31T01:42:35;37.46;32.44;55.44;;
37162;Laerm;68342;52.598;13.450;2023-07-31T01:45:01;40.07;32.31;52.38;;
37162;Laerm;68342;52.598;13.450;2023-07-31T01:47:26;41.42;36.40;51.54;;
37162;Laerm;68342;52.598;13.450;2023-07-31T01:49:51;41.82;37.18;59.38;;
37162;Laerm;68342;52.598;13.450;2023-07-31T01:52:16;40.60;37.00;53.18;;
37162;Laerm;68342;52.598;13.450;2023-07-31T01:54:42;38.17;33.08;51.36;;
37162;Laerm;68342;52.598;13.450;2023-07-31T01:57:07;39.65;32.58;52.13;;
37162;Laerm;68342;52.598;13.450;2023-07-31T01:59:32;38.60;32.54;49.75;;
37162;Laerm;68342;52.598;13.450;2023-07-31T02:01:57;43.10;32.11;53.07;;
37162;Laerm;68342;52.598;13.450;2023-07-31T02:04:23;40.79;33.09;54.32;;
37162;Laerm;68342;52.598;13.450;2023-07-31T02:06:48;38.94;33.45;51.22;;
37162;Laerm;68342;52.598;13.450;2023-07-31T02:09:13;37.71;32.08;49.26;;
37162;Laerm;68342;52.598;13.450;2023-07-31T02:11:38;40.39;33.34;51.89;;
37162;Laerm;68342;52.598;13.450;2023-07-31T02:14:04;40.43;34.58;49.77;;
37162;Laerm;68342;52.598;13.450;2023-07-31T02:16:29;39.22;33.57;48.49;;
37162;Laerm;68342;52.598;13.450;2023-07-31T02:18:54;41.56;35.96;50.19;;
37162;Laerm;68342;52.598;13.450;2023-07-31T02:21:19;41.30;36.01;51.47;;
37162;Laerm;68342;52.598;13.450;2023-07-31T02:23:45;43.17;36.64;51.53;;
37162;Laerm;68342;52.598;13.450;2023-07-31T02:26:10;43.42;38.94;51.34;;
37162;Laerm;68342;52.598;13.450;2023-07-31T02:28:35;41.92;36.04;54.01;;
37162;Laerm;68342;52.598;13.450;2023-07-31T02:31:01;39.91;34.80;48.63;;
37162;Laerm;68342;52.598;13.450;2023-07-31T02:33:26;39.63;34.55;51.13;;
37162;Laerm;68342;52.598;13.450;2023-07-31T02:35:51;39.58;36.08;54.08;;
37162;Laerm;68342;52.598;13.450;2023-07-31T02:38:16;41.26;37.00;54.07;;
37162;Laerm;68342;52.598;13.450;2023-07-31T02:40:42;38.90;34.62;52.51;;
37162;Laerm;68342;52.598;13.450;2023-07-31T02:43:07;38.63;34.22;53.67;;
37162;Laerm;68342;52.598;13.450;2023-07-31T02:45:33;37.33;33.12;50.17;;
37162;Laerm;68342;52.598;13.450;2023-07-31T02:47:58;37.86;33.98;50.18;;
37162;Laerm;68342;52.598;13.450;2023-07-31T02:50:23;37.76;33.03;50.12;;
37162;Laerm;68342;52.598;13.450;2023-07-31T02:52:48;40.97;35.80;51.12;;
37162;Laerm;68342;52.598;13.450;2023-07-31T02:55:14;43.20;37.31;59.13;;
37162;Laerm;68342;52.598;13.450;2023-07-31T02:57:39;40.88;35.99;53.05;;
37162;Laerm;68342;52.598;13.450;2023-07-31T03:00:04;40.69;36.14;51.62;;
37162;Laerm;68342;52.598;13.450;2023-07-31T03:02:31;40.82;36.16;51.53;;
37162;Laerm;68342;52.598;13.450;2023-07-31T03:04:56;41.66;36.38;52.71;;
37162;Laerm;68342;52.598;13.450;2023-07-31T03:07:22;39.58;35.50;52.55;;
37162;Laerm;68342;52.598;13.450;2023-07-31T03:09:47;39.19;34.94;51.23;;
37162;Laerm;68342;52.598;13.450;2023-07-31T03:12:12;39.14;35.10;50.83;;
37162;Laerm;68342;52.598;13.450;2023-07-31T03:14:37;39.13;34.80;49.02;;
37162;Laerm;68342;52.598;13.450;2023-07-31T03:17:03;39.39;35.32;49.85;;
37162;Laerm;68342;52.598;13.450;2023-07-31T03:19:30;41.51;36.54;53.34;;
37162;Laerm;68342;52.598;13.450;2023-07-31T03:21:55;40.67;36.88;50.84;;
37162;Laerm;68342;52.598;13.450;2023-07-31T03:24:20;45.64;37.09;57.40;;
37162;Laerm;68342;52.598;13.450;2023-07-31T03:26:45;42.12;38.06;52.82;;
37162;Laerm;68342;52.598;13.450;2023-07-31T03:29:11;41.89;37.92;56.17;;
37162;Laerm;68342;52.598;13.450;2023-07-31T03:31:36;43.58;39.06;56.83;;
37162;Laerm;68342;52.598;13.450;2023-07-31T03:34:01;44.59;40.14;53.50;;
37162;Laerm;68342;52.598;13.450;2023-07-31T03:36:26;44.98;40.57;59.50;;
37162;Laerm;68342;52.598;13.450;2023-07-31T03:38:52;44.21;39.73;53.27;;
37162;Laerm;68342;52.598;13.450;2023-07-31T03:41:17;44.89;40.65;51.17;;
37162;Laerm;68342;52.598;13.450;2023-07-31T03:43:43;46.31;41.50;52.90;;
37162;Laerm;68342;52.598;13.450;2023-07-31T03:46:08;45.07;40.58;54.02;;
37162;Laerm;68342;52.598;13.450;2023-07-31T03:48:33;45.74;39.31;59.55;;
37162;Laerm;68342;52.598;13.450;2023-07-31T03:50:59;44.99;40.65;53.39;;
37162;Laerm;68342;52.598;13.450;2023-07-31T03:53:24;45.08;40.55;56.93;;
37162;Laerm;68342;52.598;13.450;2023-07-31T03:55:49;46.65;41.96;54.94;;
37162;Laerm;68342;52.598;13.450;2023-07-31T03:58:14;46.87;40.46;62.77;;
37162;Laerm;68342;52.598;13.450;2023-07-31T04:00:40;45.69;41.48;56.21;;
37162;Laerm;68342;52.598;13.450;2023-07-31T04:03:05;44.67;41.24;51.94;;
37162;Laerm;68342;52.598;13.450;2023-07-31T04:05:31;47.88;40.75;62.89;;
37162;Laerm;68342;52.598;13.450;2023-07-31T04:07:56;47.17;42.87;59.77;;
37162;Laerm;68342;52.598;13.450;2023-07-31T04:10:22;49.59;43.76;63.28;;
37162;Laerm;68342;52.598;13.450;2023-07-31T04:12:47;47.43;43.36;58.18;;
37162;Laerm;68342;52.598;13.450;2023-07-31T04:15:13;49.05;43.27;59.89;;
37162;Laerm;68342;52.598;13.450;2023-07-31T04:17:38;48.69;41.02;62.01;;
37162;Laerm;68342;52.598;13.450;2023-07-31T04:20:03;48.13;40.74;60.38;;
37162;Laerm;68342;52.598;13.450;2023-07-31T04:22:29;48.03;44.20;59.04;;
37162;Laerm;68342;52.598;13.450;2023-07-31T04:24:54;48.04;41.85;58.77;;
37162;Laerm;68342;52.598;13.450;2023-07-31T04:27:19;46.54;42.11;57.92;;
37162;Laerm;68342;52.598;13.450;2023-07-31T04:29:45;47.05;43.20;52.52;;
37162;Laerm;68342;52.598;13.450;2023-07-31T04:32:11;46.69;42.69;56.62;;
37162;Laerm;68342;52.598;13.450;2023-07-31T04:34:37;47.20;42.58;53.35;;
37162;Laerm;68342;52.598;13.450;2023-07-31T04:37:02;45.15;42.10;51.53;;
37162;Laerm;68342;52.598;13.450;2023-07-31T04:39:27;46.15;41.86;52.20;;
37162;Laerm;68342;52.598;13.450;2023-07-31T04:41:53;46.89;43.52;62.64;;
37162;Laerm;68342;52.598;13.450;2023-07-31T04:44:18;46.21;42.07;55.28;;
37162;Laerm;68342;52.598;13.450;2023-07-31T04:46:43;46.89;41.87;52.96;;
37162;Laerm;68342;52.598;13.450;2023-07-31T04:49:08;46.02;42.67;60.08;;
37162;Laerm;68342;52.598;13.450;2023-07-31T04:51:34;46.61;42.53;56.28;;
37162;Laerm;68342;52.598;13.450;2023-07-31T04:53:59;46.28;42.72;52.03;;
37162;Laerm;68342;52.598;13.450;2023-07-31T04:56:24;47.64;42.12;62.28;;
37162;Laerm;68342;52.598;13.450;2023-07-31T04:58:49;45.92;42.31;55.32;;
37162;Laerm;68342;52.598;13.450;2023-07-31T05:01:14;46.03;43.27;57.50;;
37162;Laerm;68342;52.598;13.450;2023-07-31T05:03:40;47.73;44.31;54.24;;
37162;Laerm;68342;52.598;13.450;2023-07-31T05:06:05;46.37;42.18;54.65;;
37162;Laerm;68342;52.598;13.450;2023-07-31T05:08:30;47.88;42.61;57.68;;
37162;Laerm;68342;52.598;13.450;2023-07-31T05:10:56;48.11;44.82;57.87;;
37162;Laerm;68342;52.598;13.450;2023-07-31T05:13:21;46.34;43.85;52.55;;
37162;Laerm;68342;52.598;13.450;2023-07-31T05:15:46;47.45;44.09;53.23;;
37162;Laerm;68342;52.598;13.450;2023-07-31T05:18:11;48.67;44.88;54.53;;
37162;Laerm;68342;52.598;13.450;2023-07-31T05:20:36;47.47;43.80;54.07;;
37162;Laerm;68342;52.598;13.450;2023-07-31T05:23:02;47.37;42.93;55.53;;
37162;Laerm;68342;52.598;13.450;2023-07-31T05:25:27;47.41;43.63;57.57;;
37162;Laerm;68342;52.598;13.450;2023-07-31T05:27:52;47.75;43.92;54.78;;
37162;Laerm;68342;52.598;13.450;2023-07-31T05:30:18;45.50;42.66;54.89;;
37162;Laerm;68342;52.598;13.450;2023-07-31T05:32:43;44.93;41.50;53.34;;
37162;Laerm;68342;52.598;13.450;2023-07-31T05:35:08;45.78;42.21;52.53;;
37162;Laerm;68342;52.598;13.450;2023-07-31T05:37:34;46.58;42.04;60.24;;
37162;Laerm;68342;52.598;13.450;2023-07-31T05:39:59;44.64;41.27;54.12;;
37162;Laerm;68342;52.598;13.450;2023-07-31T05:42:24;46.34;43.21;51.74;;
37162;Laerm;68342;52.598;13.450;2023-07-31T05:44:50;47.80;41.86;62.63;;
37162;Laerm;68342;52.598;13.450;2023-07-31T05:47:15;46.88;43.04;54.03;;
37162;Laerm;68342;52.598;13.450;2023-07-31T05:49:40;46.09;41.96;52.46;;
37162;Laerm;68342;52.598;13.450;2023-07-31T05:52:05;46.42;42.50;53.37;;
37162;Laerm;68342;52.598;13.450;2023-07-31T05:54:31;45.63;41.72;54.59;;
37162;Laerm;68342;52.598;13.450;2023-07-31T05:56:57;49.30;43.29;57.83;;
37162;Laerm;68342;52.598;13.450;2023-07-31T05:59:22;48.39;43.98;56.73;;
37162;Laerm;68342;52.598;13.450;2023-07-31T06:01:47;47.94;44.66;53.20;;
37162;Laerm;68342;52.598;13.450;2023-07-31T06:04:12;47.73;44.79;52.84;;
37162;Laerm;68342;52.598;13.450;2023-07-31T06:06:38;47.16;41.54;54.99;;
37162;Laerm;68342;52.598;13.450;2023-07-31T06:09:03;48.17;43.22;62.50;;
37162;Laerm;68342;52.598;13.450;2023-07-31T06:11:28;51.63;45.00;70.22;;
37162;Laerm;68342;52.598;13.450;2023-07-31T06:13:54;47.68;42.47;61.22;;
37162;Laerm;68342;52.598;13.450;2023-07-31T06:16:19;47.05;42.89;58.24;;
37162;Laerm;68342;52.598;13.450;2023-07-31T06:18:46;48.18;42.81;58.91;;
37162;Laerm;68342;52.598;13.450;2023-07-31T06:21:11;48.86;42.81;77.06;;
37162;Laerm;68342;52.598;13.450;2023-07-31T06:23:36;47.69;44.79;55.94;;
37162;Laerm;68342;52.598;13.450;2023-07-31T06:26:02;47.17;44.67;52.36;;
37162;Laerm;68342;52.598;13.450;2023-07-31T06:28:30;48.17;45.46;53.45;;
37162;Laerm;68342;52.598;13.450;2023-07-31T06:30:56;47.47;43.98;54.19;;
37162;Laerm;68342;52.598;13.450;2023-07-31T06:33:21;47.28;44.22;51.97;;
37162;Laerm;68342;52.598;13.450;2023-07-31T06:35:47;47.65;44.00;53.83;;
37162;Laerm;68342;52.598;13.450;2023-07-31T06:38:12;47.56;44.04;54.02;;
37162;Laerm;68342;52.598;13.450;2023-07-31T06:40:37;50.01;46.28;58.18;;
37162;Laerm;68342;52.598;13.450;2023-07-31T06:43:03;48.29;44.08;58.76;;
37162;Laerm;68342;52.598;13.450;2023-07-31T06:45:34;50.56;44.18;60.37;;
37162;Laerm;68342;52.598;13.450;2023-07-31T06:48:00;46.85;43.84;53.28;;
37162;Laerm;68342;52.598;13.450;2023-07-31T06:50:26;48.27;43.27;55.47;;
37162;Laerm;68342;52.598;13.450;2023-07-31T06:52:52;48.76;43.55;66.18;;
37162;Laerm;68342;52.598;13.450;2023-07-31T06:57:45;46.98;42.66;54.72;;
37162;Laerm;68342;52.598;13.450;2023-07-31T07:00:11;46.91;42.72;55.14;;
37162;Laerm;68342;52.598;13.450;2023-07-31T07:02:36;46.50;42.19;60.79;;
37162;Laerm;68342;52.598;13.450;2023-07-31T07:05:01;45.69;41.69;57.73;;
37162;Laerm;68342;52.598;13.450;2023-07-31T07:07:27;47.80;42.27;66.98;;
37162;Laerm;68342;52.598;13.450;2023-07-31T07:09:52;46.57;42.85;56.05;;
37162;Laerm;68342;52.598;13.450;2023-07-31T07:12:18;46.60;41.44;59.21;;
37162;Laerm;68342;52.598;13.450;2023-07-31T07:14:43;48.42;43.36;62.76;;
37162;Laerm;68342;52.598;13.450;2023-07-31T07:17:10;46.08;41.74;53.54;;
37162;Laerm;68342;52.598;13.450;2023-07-31T07:19:36;46.45;42.38;59.61;;
37162;Laerm;68342;52.598;13.450;2023-07-31T07:22:01;45.93;42.44;52.69;;
37162;Laerm;68342;52.598;13.450;2023-07-31T07:24:27;47.33;44.00;55.54;;
37162;Laerm;68342;52.598;13.450;2023-07-31T07:26:52;45.55;41.40;61.55;;
37162;Laerm;68342;52.598;13.450;2023-07-31T07:29:17;47.31;42.26;70.41;;
37162;Laerm;68342;52.598;13.450;2023-07-31T07:31:42;46.28;42.20;53.74;;
37162;Laerm;68342;52.598;13.450;2023-07-31T07:34:08;47.59;43.54;57.06;;
37162;Laerm;68342;52.598;13.450;2023-07-31T07:36:33;46.71;41.31;55.87;;
37162;Laerm;68342;52.598;13.450;2023-07-31T07:38:58;47.87;41.76;61.63;;
37162;Laerm;68342;52.598;13.450;2023-07-31T07:41:23;47.17;41.01;60.28;;
37162;Laerm;68342;52.598;13.450;2023-07-31T07:43:49;47.16;43.27;60.69;;
37162;Laerm;68342;52.598;13.450;2023-07-31T07:46:14;46.19;41.51;57.82;;
37162;Laerm;68342;52.598;13.450;2023-07-31T07:48:39;45.80;41.36;56.01;;
37162;Laerm;68342;52.598;13.450;2023-07-31T07:51:05;48.35;41.23;61.05;;
37162;Laerm;68342;52.598;13.450;2023-07-31T07:53:30;50.03;44.01;62.17;;
37162;Laerm;68342;52.598;13.450;2023-07-31T07:55:55;49.05;43.68;61.22;;
37162;Laerm;68342;52.598;13.450;2023-07-31T07:58:20;48.55;42.94;59.71;;
37162;Laerm;68342;52.598;13.450;2023-07-31T08:00:50;48.50;43.29;54.82;;
37162;Laerm;68342;52.598;13.450;2023-07-31T08:03:15;48.01;43.85;57.14;;
37162;Laerm;68342;52.598;13.450;2023-07-31T08:05:42;48.15;42.70;62.31;;
37162;Laerm;68342;52.598;13.450;2023-07-31T08:08:07;45.90;41.01;55.39;;
37162;Laerm;68342;52.598;13.450;2023-07-31T08:10:32;47.52;42.45;57.72;;
37162;Laerm;68342;52.598;13.450;2023-07-31T08:12:58;46.95;43.29;57.82;;
37162;Laerm;68342;52.598;13.450;2023-07-31T08:15:23;46.12;41.35;53.39;;
37162;Laerm;68342;52.598;13.450;2023-07-31T08:17:49;46.62;41.93;54.47;;
37162;Laerm;68342;52.598;13.450;2023-07-31T08:20:14;45.33;41.71;52.34;;
37162;Laerm;68342;52.598;13.450;2023-07-31T08:22:39;46.66;42.63;58.40;;
37162;Laerm;68342;52.598;13.450;2023-07-31T08:25:05;46.56;42.24;55.92;;
37162;Laerm;68342;52.598;13.450;2023-07-31T08:27:31;46.64;42.03;53.01;;
37162;Laerm;68342;52.598;13.450;2023-07-31T08:29:57;46.62;41.41;60.96;;
37162;Laerm;68342;52.598;13.450;2023-07-31T08:32:22;46.13;41.95;61.42;;
37162;Laerm;68342;52.598;13.450;2023-07-31T08:34:47;47.25;42.14;60.04;;
37162;Laerm;68342;52.598;13.450;2023-07-31T08:37:14;45.20;40.29;61.13;;
37162;Laerm;68342;52.598;13.450;2023-07-31T08:39:39;46.68;42.72;51.72;;
37162;Laerm;68342;52.598;13.450;2023-07-31T08:42:07;46.86;41.91;53.87;;
37162;Laerm;68342;52.598;13.450;2023-07-31T08:44:33;49.23;43.17;65.02;;
37162;Laerm;68342;52.598;13.450;2023-07-31T08:46:58;52.01;41.69;68.24;;
37162;Laerm;68342;52.598;13.450;2023-07-31T08:49:24;48.21;42.59;63.72;;
37162;Laerm;68342;52.598;13.450;2023-07-31T08:51:49;47.86;42.17;61.89;;
37162;Laerm;68342;52.598;13.450;2023-07-31T08:54:15;48.88;44.21;55.65;;
37162;Laerm;68342;52.598;13.450;2023-07-31T08:56:40;47.81;41.78;58.10;;
37162;Laerm;68342;52.598;13.450;2023-07-31T08:59:07;47.82;42.99;53.51;;
37162;Laerm;68342;52.598;13.450;2023-07-31T09:01:34;47.30;43.01;55.08;;
37162;Laerm;68342;52.598;13.450;2023-07-31T09:04:01;47.87;43.42;59.79;;
37162;Laerm;68342;52.598;13.450;2023-07-31T09:06:26;48.66;43.37;57.40;;
37162;Laerm;68342;52.598;13.450;2023-07-31T09:08:53;49.59;44.91;56.84;;
37162;Laerm;68342;52.598;13.450;2023-07-31T09:11:18;48.69;44.14;56.72;;
37162;Laerm;68342;52.598;13.450;2023-07-31T09:13:46;45.88;42.37;53.80;;
37162;Laerm;68342;52.598;13.450;2023-07-31T09:16:11;48.89;42.94;59.68;;
37162;Laerm;68342;52.598;13.450;2023-07-31T09:18:55;47.58;43.74;54.11;;
37162;Laerm;68342;52.598;13.450;2023-07-31T09:21:21;46.56;43.18;53.88;;
37162;Laerm;68342;52.598;13.450;2023-07-31T09:23:47;47.16;42.58;57.34;;
37162;Laerm;68342;52.598;13.450;2023-07-31T09:26:29;46.76;41.59;68.43;;
37162;Laerm;68342;52.598;13.450;2023-07-31T09:28:55;47.73;41.99;63.54;;
37162;Laerm;68342;52.598;13.450;2023-07-31T09:31:33;47.13;42.96;56.03;;
37162;Laerm;68342;52.598;13.450;2023-07-31T09:33:59;44.81;40.88;64.38;;
37162;Laerm;68342;52.598;13.450;2023-07-31T09:36:25;47.16;41.77;58.01;;
37162;Laerm;68342;52.598;13.450;2023-07-31T09:38:53;50.45;45.22;58.96;;
37162;Laerm;68342;52.598;13.450;2023-07-31T09:41:18;48.62;44.63;55.86;;
37162;Laerm;68342;52.598;13.450;2023-07-31T09:43:52;48.60;44.21;61.58;;
37162;Laerm;68342;52.598;13.450;2023-07-31T09:46:18;47.05;42.36;52.77;;
37162;Laerm;68342;52.598;13.450;2023-07-31T09:48:45;46.73;42.81;58.49;;
37162;Laerm;68342;52.598;13.450;2023-07-31T09:51:10;48.55;42.89;61.13;;
37162;Laerm;68342;52.598;13.450;2023-07-31T09:53:35;45.35;40.07;52.13;;
37162;Laerm;68342;52.598;13.450;2023-07-31T09:56:01;45.33;39.89;55.44;;
37162;Laerm;68342;52.598;13.450;2023-07-31T09:58:27;46.72;41.06;58.87;;
37162;Laerm;68342;52.598;13.450;2023-07-31T10:00:53;49.64;44.29;59.83;;
37162;Laerm;68342;52.598;13.450;2023-07-31T10:03:19;47.19;42.12;59.67;;
37162;Laerm;68342;52.598;13.450;2023-07-31T10:05:45;44.82;41.19;60.36;;
37162;Laerm;68342;52.598;13.450;2023-07-31T10:08:14;46.57;41.34;60.38;;
37162;Laerm;68342;52.598;13.450;2023-07-31T10:10:43;50.60;41.62;67.25;;
37162;Laerm;68342;52.598;13.450;2023-07-31T10:13:09;48.24;43.32;65.00;;
37162;Laerm;68342;52.598;13.450;2023-07-31T10:15:34;47.05;42.23;54.62;;
37162;Laerm;68342;52.598;13.450;2023-07-31T10:18:00;45.75;42.19;54.60;;
37162;Laerm;68342;52.598;13.450;2023-07-31T10:20:26;46.52;43.05;55.68;;
37162;Laerm;68342;52.598;13.450;2023-07-31T10:22:54;47.10;41.95;62.17;;
37162;Laerm;68342;52.598;13.450;2023-07-31T10:25:19;47.37;43.39;54.08;;
37162;Laerm;68342;52.598;13.450;2023-07-31T10:27:45;47.63;44.05;60.09;;
37162;Laerm;68342;52.598;13.450;2023-07-31T10:30:12;47.62;43.93;56.73;;
37162;Laerm;68342;52.598;13.450;2023-07-31T10:32:40;53.81;44.76;78.24;;
37162;Laerm;68342;52.598;13.450;2023-07-31T10:35:06;50.62;44.51;63.15;;
37162;Laerm;68342;52.598;13.450;2023-07-31T10:37:39;47.21;42.46;53.28;;
37162;Laerm;68342;52.598;13.450;2023-07-31T10:40:26;47.99;42.33;58.24;;
37162;Laerm;68342;52.598;13.450;2023-07-31T10:45:24;48.75;43.53;56.82;;
37162;Laerm;68342;52.598;13.450;2023-07-31T10:47:51;47.24;42.54;61.28;;
37162;Laerm;68342;52.598;13.450;2023-07-31T10:50:22;47.06;43.18;55.17;;
37162;Laerm;68342;52.598;13.450;2023-07-31T10:52:49;45.79;41.27;56.08;;
37162;Laerm;68342;52.598;13.450;2023-07-31T10:57:49;46.45;41.26;55.05;;
37162;Laerm;68342;52.598;13.450;2023-07-31T11:00:32;46.85;41.35;53.40;;
37162;Laerm;68342;52.598;13.450;2023-07-31T11:08:16;46.87;42.30;53.79;;
37162;Laerm;68342;52.598;13.450;2023-07-31T11:10:42;47.30;43.47;53.05;;
37162;Laerm;68342;52.598;13.450;2023-07-31T11:13:08;48.11;42.69;57.10;;
37162;Laerm;68342;52.598;13.450;2023-07-31T11:15:33;49.39;42.53;63.66;;
37162;Laerm;68342;52.598;13.450;2023-07-31T11:18:00;48.62;43.58;61.56;;
37162;Laerm;68342;52.598;13.450;2023-07-31T11:20:29;49.26;45.12;58.62;;
37162;Laerm;68342;52.598;13.450;2023-07-31T11:22:54;49.28;44.82;54.29;;
37162;Laerm;68342;52.598;13.450;2023-07-31T11:25:19;47.94;42.75;57.05;;
37162;Laerm;68342;52.598;13.450;2023-07-31T11:27:45;46.56;42.08;54.63;;
37162;Laerm;68342;52.598;13.450;2023-07-31T11:30:10;48.60;44.02;56.63;;
37162;Laerm;68342;52.598;13.450;2023-07-31T11:32:36;48.15;44.84;55.77;;
37162;Laerm;68342;52.598;13.450;2023-07-31T11:35:02;48.67;43.35;55.29;;
37162;Laerm;68342;52.598;13.450;2023-07-31T11:37:43;47.04;43.09;54.23;;
37162;Laerm;68342;52.598;13.450;2023-07-31T11:40:08;48.71;42.84;59.91;;
37162;Laerm;68342;52.598;13.450;2023-07-31T11:42:34;47.13;42.83;53.16;;
37162;Laerm;68342;52.598;13.450;2023-07-31T11:45:01;49.65;45.04;58.41;;
37162;Laerm;68342;52.598;13.450;2023-07-31T11:47:27;48.86;44.22;56.18;;
37162;Laerm;68342;52.598;13.450;2023-07-31T11:49:52;48.70;42.12;62.27;;
37162;Laerm;68342;52.598;13.450;2023-07-31T11:52:18;49.82;44.41;70.75;;
37162;Laerm;68342;52.598;13.450;2023-07-31T11:54:45;48.57;43.09;56.53;;
37162;Laerm;68342;52.598;13.450;2023-07-31T11:57:11;47.40;43.26;62.18;;
37162;Laerm;68342;52.598;13.450;2023-07-31T11:59:37;46.68;43.36;55.07;;
37162;Laerm;68342;52.598;13.450;2023-07-31T12:02:03;49.58;44.55;61.56;;
37162;Laerm;68342;52.598;13.450;2023-07-31T12:04:28;46.95;42.78;60.22;;
37162;Laerm;68342;52.598;13.450;2023-07-31T12:06:54;46.98;43.09;53.41;;
37162;Laerm;68342;52.598;13.450;2023-07-31T12:09:19;48.45;44.49;55.69;;
37162;Laerm;68342;52.598;13.450;2023-07-31T12:11:46;49.84;46.07;58.71;;
37162;Laerm;68342;52.598;13.450;2023-07-31T12:14:21;48.64;43.84;56.72;;
37162;Laerm;68342;52.598;13.450;2023-07-31T12:16:53;49.25;44.20;60.00;;
37162;Laerm;68342;52.598;13.450;2023-07-31T12:19:19;47.99;44.27;54.84;;
37162;Laerm;68342;52.598;13.450;2023-07-31T12:21:44;48.21;43.03;63.21;;
37162;Laerm;68342;52.598;13.450;2023-07-31T12:24:09;47.45;42.63;61.94;;
37162;Laerm;68342;52.598;13.450;2023-07-31T12:26:35;49.76;43.86;60.40;;
37162;Laerm;68342;52.598;13.450;2023-07-31T12:29:00;49.49;43.86;59.11;;
37162;Laerm;68342;52.598;13.450;2023-07-31T12:31:27;49.11;45.91;56.12;;
37162;Laerm;68342;52.598;13.450;2023-07-31T12:33:53;48.33;44.13;60.38;;
37162;Laerm;68342;52.598;13.450;2023-07-31T12:36:20;47.88;43.57;54.83;;
37162;Laerm;68342;52.598;13.450;2023-07-31T12:38:46;46.60;42.48;55.37;;
37162;Laerm;68342;52.598;13.450;2023-07-31T12:41:11;46.98;42.54;53.77;;
37162;Laerm;68342;52.598;13.450;2023-07-31T12:43:38;49.89;43.15;58.38;;
37162;Laerm;68342;52.598;13.450;2023-07-31T12:46:03;49.49;44.97;55.66;;
37162;Laerm;68342;52.598;13.450;2023-07-31T12:48:29;48.81;44.34;59.03;;
37162;Laerm;68342;52.598;13.450;2023-07-31T12:50:54;48.41;43.12;58.44;;
37162;Laerm;68342;52.598;13.450;2023-07-31T12:53:19;47.56;42.50;59.26;;
37162;Laerm;68342;52.598;13.450;2023-07-31T12:55:45;47.87;42.51;60.84;;
37162;Laerm;68342;52.598;13.450;2023-07-31T12:58:10;48.47;43.75;59.45;;
37162;Laerm;68342;52.598;13.450;2023-07-31T13:00:35;48.58;43.79;56.18;;
37162;Laerm;68342;52.598;13.450;2023-07-31T13:03:01;46.78;42.52;52.54;;
37162;Laerm;68342;52.598;13.450;2023-07-31T13:05:26;48.53;44.63;55.41;;
37162;Laerm;68342;52.598;13.450;2023-07-31T13:07:52;50.03;44.95;56.84;;
37162;Laerm;68342;52.598;13.450;2023-07-31T13:10:17;47.78;44.01;56.99;;
37162;Laerm;68342;52.598;13.450;2023-07-31T13:12:42;48.11;42.81;54.21;;
37162;Laerm;68342;52.598;13.450;2023-07-31T13:15:08;48.15;43.16;54.20;;
37162;Laerm;68342;52.598;13.450;2023-07-31T13:17:33;46.31;43.42;54.20;;
37162;Laerm;68342;52.598;13.450;2023-07-31T13:19:59;49.08;43.44;54.67;;
37162;Laerm;68342;52.598;13.450;2023-07-31T13:22:24;50.11;46.30;61.14;;
37162;Laerm;68342;52.598;13.450;2023-07-31T13:24:50;49.84;45.38;60.52;;
37162;Laerm;68342;52.598;13.450;2023-07-31T13:27:15;50.62;45.90;57.10;;
37162;Laerm;68342;52.598;13.450;2023-07-31T13:29:45;49.67;44.72;67.01;;
37162;Laerm;68342;52.598;13.450;2023-07-31T13:32:10;46.38;43.29;51.80;;
37162;Laerm;68342;52.598;13.450;2023-07-31T13:34:36;46.83;42.35;54.35;;
37162;Laerm;68342;52.598;13.450;2023-07-31T13:37:01;45.35;41.76;59.06;;
37162;Laerm;68342;52.598;13.450;2023-07-31T13:39:26;46.12;41.83;56.62;;
37162;Laerm;68342;52.598;13.450;2023-07-31T13:41:52;48.13;42.51;58.58;;
37162;Laerm;68342;52.598;13.450;2023-07-31T13:44:17;44.88;41.94;56.67;;